sensor_id;sensor_type;location;lat;lon;timestamp;P1;durP1;ratioP1;P2;durP2;ratioP2
71148;SDS011;59072;42.144;25.200;2023-08-07T00:00:03;5.57;;;1.85;;
71148;SDS011;59072;42.144;25.200;2023-08-07T00:02:29;4.53;;;2.00;;
71148;SDS011;59072;42.144;25.200;2023-08-07T00:04:55;4.90;;;1.75;;
71148;SDS011;59072;42.144;25.200;2023-08-07T00:07:20;4.65;;;1.75;;
71148;SDS011;59072;42.144;25.200;2023-08-07T00:09:46;2.28;;;1.17;;
71148;SDS011;59072;42.144;25.200;2023-08-07T00:12:14;3.22;;;1.33;;
71148;SDS011;59072;42.144;25.200;2023-08-07T00:14:40;2.38;;;0.95;;
71148;SDS011;59072;42.144;25.200;2023-08-07T00:17:05;2.83;;;0.93;;
71148;SDS011;59072;42.144;25.200;2023-08-07T00:19:31;2.47;;;1.00;;
71148;SDS011;59072;42.144;25.200;2023-08-07T00:21:56;2.22;;;0.90;;
71148;SDS011;59072;42.144;25.200;2023-08-07T00:24:22;4.30;;;1.35;;
71148;SDS011;59072;42.144;25.200;2023-08-07T00:26:49;4.45;;;1.45;;
71148;SDS011;59072;42.144;25.200;2023-08-07T00:29:15;4.47;;;1.23;;
71148;SDS011;59072;42.144;25.200;2023-08-07T00:31:40;2.50;;;1.00;;
71148;SDS011;59072;42.144;25.200;2023-08-07T00:34:06;3.58;;;1.50;;
71148;SDS011;59072;42.144;25.200;2023-08-07T00:36:31;2.55;;;1.10;;
71148;SDS011;59072;42.144;25.200;2023-08-07T00:38:59;1.95;;;1.10;;
71148;SDS011;59072;42.144;25.200;2023-08-07T00:41:25;3.28;;;1.38;;
71148;SDS011;59072;42.144;25.200;2023-08-07T00:43:51;1.80;;;0.88;;
71148;SDS011;59072;42.144;25.200;2023-08-07T00:46:17;4.10;;;1.50;;
71148;SDS011;59072;42.144;25.200;2023-08-07T00:48:45;2.50;;;1.10;;
71148;SDS011;59072;42.144;25.200;2023-08-07T00:51:11;2.60;;;1.13;;
71148;SDS011;59072;42.144;25.200;2023-08-07T00:53:38;2.55;;;1.20;;
71148;SDS011;59072;42.144;25.200;2023-08-07T00:56:04;2.92;;;1.27;;
71148;SDS011;59072;42.144;25.200;2023-08-07T00:58:30;2.47;;;1.08;;
71148;SDS011;59072;42.144;25.200;2023-08-07T01:00:56;2.42;;;1.10;;
71148;SDS011;59072;42.144;25.200;2023-08-07T01:03:22;5.78;;;1.25;;
71148;SDS011;59072;42.144;25.200;2023-08-07T01:05:48;3.03;;;1.33;;
71148;SDS011;59072;42.144;25.200;2023-08-07T01:08:14;2.60;;;1.40;;
71148;SDS011;59072;42.144;25.200;2023-08-07T01:10:48;3.20;;;1.00;;
71148;SDS011;59072;42.144;25.200;2023-08-07T01:13:59;1.35;;;0.98;;
71148;SDS011;59072;42.144;25.200;2023-08-07T01:16:48;2.95;;;1.60;;
71148;SDS011;59072;42.144;25.200;2023-08-07T01:19:27;3.55;;;1.65;;
71148;SDS011;59072;42.144;25.200;2023-08-07T01:22:09;2.72;;;1.20;;
71148;SDS011;59072;42.144;25.200;2023-08-07T01:24:37;2.10;;;1.17;;
71148;SDS011;59072;42.144;25.200;2023-08-07T01:32:29;4.15;;;1.50;;
71148;SDS011;59072;42.144;25.200;2023-08-07T01:35:03;2.28;;;1.10;;
71148;SDS011;59072;42.144;25.200;2023-08-07T01:37:34;1.92;;;1.10;;
71148;SDS011;59072;42.144;25.200;2023-08-07T01:40:01;4.50;;;1.27;;
71148;SDS011;59072;42.144;25.200;2023-08-07T01:42:29;2.85;;;1.38;;
71148;SDS011;59072;42.144;25.200;2023-08-07T01:44:54;3.80;;;1.60;;
71148;SDS011;59072;42.144;25.200;2023-08-07T01:47:20;2.22;;;1.13;;
71148;SDS011;59072;42.144;25.200;2023-08-07T01:49:45;5.47;;;1.30;;
71148;SDS011;59072;42.144;25.200;2023-08-07T01:52:13;3.13;;;1.33;;
71148;SDS011;59072;42.144;25.200;2023-08-07T01:54:39;2.88;;;1.60;;
71148;SDS011;59072;42.144;25.200;2023-08-07T01:57:04;1.40;;;1.10;;
71148;SDS011;59072;42.144;25.200;2023-08-07T01:59:33;3.30;;;1.65;;
71148;SDS011;59072;42.144;25.200;2023-08-07T02:01:59;2.70;;;1.40;;
71148;SDS011;59072;42.144;25.200;2023-08-07T02:04:24;2.95;;;1.40;;
71148;SDS011;59072;42.144;25.200;2023-08-07T02:06:50;3.35;;;2.13;;
71148;SDS011;59072;42.144;25.200;2023-08-07T02:09:15;3.53;;;1.63;;
71148;SDS011;59072;42.144;25.200;2023-08-07T02:11:40;4.65;;;1.80;;
71148;SDS011;59072;42.144;25.200;2023-08-07T02:14:07;4.82;;;2.00;;
71148;SDS011;59072;42.144;25.200;2023-08-07T02:16:33;2.58;;;1.50;;
71148;SDS011;59072;42.144;25.200;2023-08-07T02:18:58;5.30;;;1.48;;
71148;SDS011;59072;42.144;25.200;2023-08-07T02:21:24;4.35;;;1.95;;
71148;SDS011;59072;42.144;25.200;2023-08-07T02:23:49;3.10;;;1.75;;
71148;SDS011;59072;42.144;25.200;2023-08-07T02:26:15;4.32;;;2.10;;
71148;SDS011;59072;42.144;25.200;2023-08-07T02:28:40;5.00;;;2.33;;
71148;SDS011;59072;42.144;25.200;2023-08-07T02:31:08;3.35;;;1.60;;
71148;SDS011;59072;42.144;25.200;2023-08-07T02:33:33;3.20;;;1.70;;
71148;SDS011;59072;42.144;25.200;2023-08-07T02:35:59;2.92;;;1.92;;
71148;SDS011;59072;42.144;25.200;2023-08-07T02:38:24;5.60;;;1.65;;
71148;SDS011;59072;42.144;25.200;2023-08-07T02:40:50;2.17;;;1.63;;
71148;SDS011;59072;42.144;25.200;2023-08-07T02:43:16;3.03;;;1.85;;
71148;SDS011;59072;42.144;25.200;2023-08-07T02:45:41;2.85;;;1.80;;
71148;SDS011;59072;42.144;25.200;2023-08-07T02:48:07;5.03;;;1.80;;
71148;SDS011;59072;42.144;25.200;2023-08-07T02:50:32;5.80;;;2.30;;
71148;SDS011;59072;42.144;25.200;2023-08-07T02:53:00;3.67;;;2.25;;
71148;SDS011;59072;42.144;25.200;2023-08-07T02:55:27;3.33;;;2.03;;
71148;SDS011;59072;42.144;25.200;2023-08-07T02:57:52;4.45;;;2.15;;
71148;SDS011;59072;42.144;25.200;2023-08-07T03:00:20;4.32;;;2.70;;
71148;SDS011;59072;42.144;25.200;2023-08-07T03:02:47;4.03;;;2.42;;
71148;SDS011;59072;42.144;25.200;2023-08-07T03:05:12;4.32;;;2.38;;
71148;SDS011;59072;42.144;25.200;2023-08-07T03:07:37;3.83;;;2.28;;
71148;SDS011;59072;42.144;25.200;2023-08-07T03:10:03;3.72;;;2.20;;
71148;SDS011;59072;42.144;25.200;2023-08-07T03:12:29;4.10;;;2.15;;
71148;SDS011;59072;42.144;25.200;2023-08-07T03:14:54;7.13;;;2.60;;
71148;SDS011;59072;42.144;25.200;2023-08-07T03:17:20;3.33;;;1.95;;
71148;SDS011;59072;42.144;25.200;2023-08-07T03:19:45;5.13;;;2.03;;
71148;SDS011;59072;42.144;25.200;2023-08-07T03:22:11;2.40;;;1.75;;
71148;SDS011;59072;42.144;25.200;2023-08-07T03:24:38;3.67;;;2.30;;
71148;SDS011;59072;42.144;25.200;2023-08-07T03:27:03;3.67;;;1.92;;
71148;SDS011;59072;42.144;25.200;2023-08-07T03:29:29;3.95;;;2.70;;
71148;SDS011;59072;42.144;25.200;2023-08-07T03:31:55;4.50;;;2.47;;
71148;SDS011;59072;42.144;25.200;2023-08-07T03:34:20;3.40;;;2.08;;
71148;SDS011;59072;42.144;25.200;2023-08-07T03:36:48;4.25;;;2.67;;
71148;SDS011;59072;42.144;25.200;2023-08-07T03:39:13;4.18;;;2.50;;
71148;SDS011;59072;42.144;25.200;2023-08-07T03:41:39;2.95;;;2.25;;
71148;SDS011;59072;42.144;25.200;2023-08-07T03:44:04;3.97;;;2.58;;
71148;SDS011;59072;42.144;25.200;2023-08-07T03:46:32;4.70;;;2.67;;
71148;SDS011;59072;42.144;25.200;2023-08-07T03:48:58;3.65;;;2.60;;
71148;SDS011;59072;42.144;25.200;2023-08-07T03:51:23;3.08;;;2.10;;
71148;SDS011;59072;42.144;25.200;2023-08-07T03:53:49;4.03;;;2.63;;
71148;SDS011;59072;42.144;25.200;2023-08-07T03:56:14;4.43;;;2.58;;
71148;SDS011;59072;42.144;25.200;2023-08-07T03:58:42;3.67;;;2.33;;
71148;SDS011;59072;42.144;25.200;2023-08-07T04:01:08;5.68;;;2.63;;
71148;SDS011;59072;42.144;25.200;2023-08-07T04:03:33;4.22;;;2.45;;
71148;SDS011;59072;42.144;25.200;2023-08-07T04:05:59;4.35;;;2.65;;
71148;SDS011;59072;42.144;25.200;2023-08-07T04:08:30;5.53;;;2.97;;
71148;SDS011;59072;42.144;25.200;2023-08-07T04:13:30;4.45;;;2.78;;
71148;SDS011;59072;42.144;25.200;2023-08-07T04:15:57;5.95;;;2.95;;
71148;SDS011;59072;42.144;25.200;2023-08-07T04:18:23;6.13;;;3.30;;
71148;SDS011;59072;42.144;25.200;2023-08-07T04:20:55;7.00;;;3.45;;
71148;SDS011;59072;42.144;25.200;2023-08-07T04:23:21;5.53;;;3.53;;
71148;SDS011;59072;42.144;25.200;2023-08-07T04:25:47;5.68;;;2.88;;
71148;SDS011;59072;42.144;25.200;2023-08-07T04:28:13;3.72;;;2.70;;
71148;SDS011;59072;42.144;25.200;2023-08-07T04:30:44;5.25;;;3.22;;
71148;SDS011;59072;42.144;25.200;2023-08-07T04:33:10;6.15;;;2.88;;
71148;SDS011;59072;42.144;25.200;2023-08-07T04:35:36;4.72;;;2.80;;
71148;SDS011;59072;42.144;25.200;2023-08-07T04:38:02;5.35;;;2.75;;
71148;SDS011;59072;42.144;25.200;2023-08-07T04:40:28;5.47;;;2.67;;
71148;SDS011;59072;42.144;25.200;2023-08-07T04:42:54;4.25;;;2.40;;
71148;SDS011;59072;42.144;25.200;2023-08-07T04:45:20;4.15;;;2.85;;
71148;SDS011;59072;42.144;25.200;2023-08-07T04:47:47;3.72;;;2.70;;
71148;SDS011;59072;42.144;25.200;2023-08-07T04:50:13;4.90;;;2.60;;
71148;SDS011;59072;42.144;25.200;2023-08-07T04:52:38;4.10;;;2.95;;
71148;SDS011;59072;42.144;25.200;2023-08-07T04:55:04;3.95;;;2.47;;
71148;SDS011;59072;42.144;25.200;2023-08-07T04:57:29;4.00;;;2.70;;
71148;SDS011;59072;42.144;25.200;2023-08-07T04:59:55;3.47;;;2.40;;
71148;SDS011;59072;42.144;25.200;2023-08-07T05:02:21;3.40;;;2.30;;
71148;SDS011;59072;42.144;25.200;2023-08-07T05:04:46;3.25;;;2.20;;
71148;SDS011;59072;42.144;25.200;2023-08-07T05:07:12;3.15;;;2.25;;
71148;SDS011;59072;42.144;25.200;2023-08-07T05:09:37;3.35;;;2.35;;
71148;SDS011;59072;42.144;25.200;2023-08-07T05:12:03;3.13;;;2.20;;
71148;SDS011;59072;42.144;25.200;2023-08-07T05:14:29;4.88;;;2.30;;
71148;SDS011;59072;42.144;25.200;2023-08-07T05:16:55;4.53;;;2.40;;
71148;SDS011;59072;42.144;25.200;2023-08-07T05:19:20;3.78;;;2.28;;
71148;SDS011;59072;42.144;25.200;2023-08-07T05:21:46;5.78;;;2.90;;
71148;SDS011;59072;42.144;25.200;2023-08-07T05:24:15;3.00;;;1.90;;
71148;SDS011;59072;42.144;25.200;2023-08-07T05:26:41;4.00;;;2.25;;
71148;SDS011;59072;42.144;25.200;2023-08-07T05:29:06;2.35;;;1.80;;
71148;SDS011;59072;42.144;25.200;2023-08-07T05:31:32;2.90;;;1.80;;
71148;SDS011;59072;42.144;25.200;2023-08-07T05:33:58;3.20;;;2.00;;
71148;SDS011;59072;42.144;25.200;2023-08-07T05:36:24;2.60;;;1.65;;
71148;SDS011;59072;42.144;25.200;2023-08-07T05:38:49;5.90;;;2.30;;
71148;SDS011;59072;42.144;25.200;2023-08-07T05:41:14;3.35;;;1.92;;
71148;SDS011;59072;42.144;25.200;2023-08-07T05:43:41;3.72;;;1.70;;
71148;SDS011;59072;42.144;25.200;2023-08-07T05:46:06;4.47;;;2.30;;
71148;SDS011;59072;42.144;25.200;2023-08-07T05:48:32;3.50;;;2.15;;
71148;SDS011;59072;42.144;25.200;2023-08-07T05:51:00;3.78;;;2.38;;
71148;SDS011;59072;42.144;25.200;2023-08-07T05:55:50;2.67;;;1.92;;
71148;SDS011;59072;42.144;25.200;2023-08-07T05:58:16;4.65;;;2.30;;
71148;SDS011;59072;42.144;25.200;2023-08-07T06:00:44;3.88;;;2.00;;
71148;SDS011;59072;42.144;25.200;2023-08-07T06:03:09;4.10;;;2.40;;
71148;SDS011;59072;42.144;25.200;2023-08-07T06:05:35;3.65;;;1.85;;
71148;SDS011;59072;42.144;25.200;2023-08-07T06:08:05;3.45;;;2.10;;
71148;SDS011;59072;42.144;25.200;2023-08-07T06:10:31;2.33;;;1.60;;
71148;SDS011;59072;42.144;25.200;2023-08-07T06:12:56;2.58;;;2.08;;
71148;SDS011;59072;42.144;25.200;2023-08-07T06:15:22;3.35;;;1.73;;
71148;SDS011;59072;42.144;25.200;2023-08-07T06:17:47;5.00;;;2.10;;
71148;SDS011;59072;42.144;25.200;2023-08-07T06:20:13;3.00;;;1.80;;
71148;SDS011;59072;42.144;25.200;2023-08-07T06:22:41;3.25;;;1.60;;
71148;SDS011;59072;42.144;25.200;2023-08-07T06:25:06;3.80;;;2.10;;
71148;SDS011;59072;42.144;25.200;2023-08-07T06:27:33;1.85;;;1.58;;
71148;SDS011;59072;42.144;25.200;2023-08-07T06:29:59;3.25;;;1.77;;
71148;SDS011;59072;42.144;25.200;2023-08-07T06:32:25;2.47;;;1.70;;
71148;SDS011;59072;42.144;25.200;2023-08-07T06:34:50;3.38;;;1.80;;
71148;SDS011;59072;42.144;25.200;2023-08-07T06:37:16;2.17;;;1.63;;
71148;SDS011;59072;42.144;25.200;2023-08-07T06:39:41;2.67;;;1.90;;
71148;SDS011;59072;42.144;25.200;2023-08-07T06:42:07;2.42;;;1.75;;
71148;SDS011;59072;42.144;25.200;2023-08-07T06:44:32;4.95;;;1.98;;
71148;SDS011;59072;42.144;25.200;2023-08-07T06:46:58;2.92;;;1.70;;
71148;SDS011;59072;42.144;25.200;2023-08-07T06:49:23;2.17;;;1.77;;
71148;SDS011;59072;42.144;25.200;2023-08-07T06:51:49;3.90;;;2.00;;
71148;SDS011;59072;42.144;25.200;2023-08-07T06:54:14;6.93;;;2.05;;
71148;SDS011;59072;42.144;25.200;2023-08-07T06:56:40;1.98;;;1.35;;
71148;SDS011;59072;42.144;25.200;2023-08-07T06:59:07;4.78;;;1.85;;
71148;SDS011;59072;42.144;25.200;2023-08-07T07:01:32;2.28;;;1.70;;
71148;SDS011;59072;42.144;25.200;2023-08-07T07:03:58;3.90;;;1.85;;
71148;SDS011;59072;42.144;25.200;2023-08-07T07:08:51;2.13;;;1.70;;
71148;SDS011;59072;42.144;25.200;2023-08-07T07:11:21;3.58;;;1.42;;
71148;SDS011;59072;42.144;25.200;2023-08-07T07:13:49;3.50;;;1.80;;
71148;SDS011;59072;42.144;25.200;2023-08-07T07:16:16;2.47;;;1.77;;
71148;SDS011;59072;42.144;25.200;2023-08-07T07:18:43;1.92;;;1.50;;
71148;SDS011;59072;42.144;25.200;2023-08-07T07:21:08;2.08;;;1.77;;
71148;SDS011;59072;42.144;25.200;2023-08-07T07:23:34;3.78;;;1.67;;
71148;SDS011;59072;42.144;25.200;2023-08-07T07:25:59;3.35;;;1.75;;
71148;SDS011;59072;42.144;25.200;2023-08-07T07:28:25;1.85;;;1.40;;
71148;SDS011;59072;42.144;25.200;2023-08-07T07:30:50;3.78;;;1.40;;
71148;SDS011;59072;42.144;25.200;2023-08-07T07:33:16;1.98;;;1.40;;
71148;SDS011;59072;42.144;25.200;2023-08-07T07:35:42;3.08;;;1.40;;
71148;SDS011;59072;42.144;25.200;2023-08-07T07:38:08;2.78;;;1.77;;
71148;SDS011;59072;42.144;25.200;2023-08-07T07:40:36;1.75;;;1.50;;
71148;SDS011;59072;42.144;25.200;2023-08-07T07:43:02;1.50;;;1.40;;
71148;SDS011;59072;42.144;25.200;2023-08-07T07:45:28;3.63;;;1.50;;
71148;SDS011;59072;42.144;25.200;2023-08-07T07:47:54;2.65;;;1.38;;
71148;SDS011;59072;42.144;25.200;2023-08-07T07:50:19;2.13;;;1.50;;
71148;SDS011;59072;42.144;25.200;2023-08-07T07:52:45;2.45;;;1.30;;
71148;SDS011;59072;42.144;25.200;2023-08-07T07:55:13;1.65;;;1.30;;
71148;SDS011;59072;42.144;25.200;2023-08-07T07:57:39;2.70;;;1.40;;
71148;SDS011;59072;42.144;25.200;2023-08-07T08:00:06;2.13;;;1.45;;
71148;SDS011;59072;42.144;25.200;2023-08-07T08:02:35;1.88;;;1.23;;
71148;SDS011;59072;42.144;25.200;2023-08-07T08:05:01;2.92;;;1.88;;
71148;SDS011;59072;42.144;25.200;2023-08-07T08:07:27;2.35;;;1.50;;
71148;SDS011;59072;42.144;25.200;2023-08-07T08:09:52;3.15;;;1.50;;
71148;SDS011;59072;42.144;25.200;2023-08-07T08:12:20;1.90;;;1.15;;
71148;SDS011;59072;42.144;25.200;2023-08-07T08:14:49;4.53;;;1.40;;
71148;SDS011;59072;42.144;25.200;2023-08-07T08:17:14;3.50;;;1.45;;
71148;SDS011;59072;42.144;25.200;2023-08-07T08:19:40;2.65;;;1.20;;
71148;SDS011;59072;42.144;25.200;2023-08-07T08:22:05;1.42;;;1.20;;
71148;SDS011;59072;42.144;25.200;2023-08-07T08:26:58;2.03;;;1.10;;
71148;SDS011;59072;42.144;25.200;2023-08-07T08:29:24;1.98;;;1.25;;
71148;SDS011;59072;42.144;25.200;2023-08-07T08:31:49;3.22;;;1.52;;
71148;SDS011;59072;42.144;25.200;2023-08-07T08:34:18;4.80;;;1.40;;
71148;SDS011;59072;42.144;25.200;2023-08-07T08:36:46;1.85;;;1.33;;
71148;SDS011;59072;42.144;25.200;2023-08-07T08:39:12;1.88;;;1.30;;
71148;SDS011;59072;42.144;25.200;2023-08-07T08:41:37;1.33;;;1.10;;
71148;SDS011;59072;42.144;25.200;2023-08-07T08:44:03;1.75;;;1.20;;
71148;SDS011;59072;42.144;25.200;2023-08-07T08:46:30;1.85;;;1.20;;
71148;SDS011;59072;42.144;25.200;2023-08-07T08:48:57;2.78;;;1.10;;
71148;SDS011;59072;42.144;25.200;2023-08-07T08:51:24;1.67;;;1.27;;
71148;SDS011;59072;42.144;25.200;2023-08-07T08:53:53;2.03;;;1.30;;
71148;SDS011;59072;42.144;25.200;2023-08-07T08:56:21;2.53;;;1.30;;
71148;SDS011;59072;42.144;25.200;2023-08-07T08:58:48;1.30;;;1.10;;
71148;SDS011;59072;42.144;25.200;2023-08-07T09:03:42;2.78;;;1.20;;
71148;SDS011;59072;42.144;25.200;2023-08-07T09:06:10;1.10;;;1.00;;
71148;SDS011;59072;42.144;25.200;2023-08-07T09:08:43;3.17;;;0.97;;
71148;SDS011;59072;42.144;25.200;2023-08-07T09:11:11;1.65;;;1.00;;
71148;SDS011;59072;42.144;25.200;2023-08-07T09:13:39;1.42;;;0.60;;
71148;SDS011;59072;42.144;25.200;2023-08-07T09:16:08;0.65;;;0.65;;
71148;SDS011;59072;42.144;25.200;2023-08-07T09:18:35;0.57;;;0.57;;
71148;SDS011;59072;42.144;25.200;2023-08-07T09:21:01;1.52;;;0.50;;
71148;SDS011;59072;42.144;25.200;2023-08-07T09:23:26;1.42;;;0.50;;
71148;SDS011;59072;42.144;25.200;2023-08-07T09:25:58;0.57;;;0.50;;
71148;SDS011;59072;42.144;25.200;2023-08-07T09:28:25;3.38;;;0.73;;
71148;SDS011;59072;42.144;25.200;2023-08-07T09:30:52;2.30;;;0.80;;
71148;SDS011;59072;42.144;25.200;2023-08-07T09:33:24;2.30;;;0.73;;
71148;SDS011;59072;42.144;25.200;2023-08-07T09:35:52;1.77;;;0.70;;
71148;SDS011;59072;42.144;25.200;2023-08-07T09:38:22;0.73;;;0.70;;
71148;SDS011;59072;42.144;25.200;2023-08-07T09:40:48;1.00;;;0.77;;
71148;SDS011;59072;42.144;25.200;2023-08-07T09:43:22;1.73;;;0.80;;
71148;SDS011;59072;42.144;25.200;2023-08-07T09:45:48;0.77;;;0.70;;
71148;SDS011;59072;42.144;25.200;2023-08-07T09:48:21;0.88;;;0.70;;
71148;SDS011;59072;42.144;25.200;2023-08-07T09:50:50;2.05;;;0.70;;
71148;SDS011;59072;42.144;25.200;2023-08-07T09:53:15;2.75;;;0.68;;
71148;SDS011;59072;42.144;25.200;2023-08-07T09:55:41;0.77;;;0.70;;
71148;SDS011;59072;42.144;25.200;2023-08-07T09:58:07;0.60;;;0.60;;
71148;SDS011;59072;42.144;25.200;2023-08-07T10:00:34;2.30;;;0.82;;
71148;SDS011;59072;42.144;25.200;2023-08-07T10:03:00;2.40;;;1.00;;
71148;SDS011;59072;42.144;25.200;2023-08-07T10:05:27;1.13;;;0.90;;
71148;SDS011;59072;42.144;25.200;2023-08-07T10:07:55;0.80;;;0.60;;
71148;SDS011;59072;42.144;25.200;2023-08-07T10:10:20;0.65;;;0.60;;
71148;SDS011;59072;42.144;25.200;2023-08-07T10:12:50;1.00;;;0.75;;
71148;SDS011;59072;42.144;25.200;2023-08-07T10:15:19;1.27;;;0.70;;
71148;SDS011;59072;42.144;25.200;2023-08-07T10:17:47;1.02;;;0.65;;
71148;SDS011;59072;42.144;25.200;2023-08-07T10:20:13;1.55;;;0.77;;
71148;SDS011;59072;42.144;25.200;2023-08-07T10:22:38;1.10;;;0.70;;
71148;SDS011;59072;42.144;25.200;2023-08-07T10:25:08;1.23;;;0.52;;
71148;SDS011;59072;42.144;25.200;2023-08-07T10:27:36;1.02;;;0.70;;
71148;SDS011;59072;42.144;25.200;2023-08-07T10:30:07;1.77;;;0.73;;
71148;SDS011;59072;42.144;25.200;2023-08-07T10:32:39;0.90;;;0.68;;
71148;SDS011;59072;42.144;25.200;2023-08-07T10:35:07;2.03;;;0.90;;
71148;SDS011;59072;42.144;25.200;2023-08-07T10:40:05;4.03;;;0.70;;
71148;SDS011;59072;42.144;25.200;2023-08-07T10:45:24;3.00;;;0.80;;
71148;SDS011;59072;42.144;25.200;2023-08-07T10:50:31;1.33;;;0.82;;
71148;SDS011;59072;42.144;25.200;2023-08-07T10:53:01;1.15;;;0.90;;
71148;SDS011;59072;42.144;25.200;2023-08-07T10:55:31;0.77;;;0.70;;
71148;SDS011;59072;42.144;25.200;2023-08-07T10:58:10;1.33;;;0.63;;
71148;SDS011;59072;42.144;25.200;2023-08-07T11:00:50;2.08;;;0.90;;
71148;SDS011;59072;42.144;25.200;2023-08-07T11:03:20;1.25;;;0.40;;
71148;SDS011;59072;42.144;25.200;2023-08-07T11:05:57;3.70;;;1.33;;
71148;SDS011;59072;42.144;25.200;2023-08-07T11:08:23;2.83;;;0.90;;
71148;SDS011;59072;42.144;25.200;2023-08-07T11:10:50;2.70;;;0.85;;
71148;SDS011;59072;42.144;25.200;2023-08-07T11:13:16;1.52;;;0.90;;
71148;SDS011;59072;42.144;25.200;2023-08-07T11:15:42;2.83;;;1.10;;
71148;SDS011;59072;42.144;25.200;2023-08-07T11:18:09;7.72;;;1.45;;
71148;SDS011;59072;42.144;25.200;2023-08-07T11:20:35;3.65;;;0.85;;
71148;SDS011;59072;42.144;25.200;2023-08-07T11:23:04;1.98;;;0.90;;
71148;SDS011;59072;42.144;25.200;2023-08-07T11:25:30;2.38;;;0.85;;
71148;SDS011;59072;42.144;25.200;2023-08-07T11:27:55;1.30;;;0.95;;
71148;SDS011;59072;42.144;25.200;2023-08-07T11:30:21;1.20;;;0.90;;
71148;SDS011;59072;42.144;25.200;2023-08-07T11:32:46;1.10;;;0.93;;
71148;SDS011;59072;42.144;25.200;2023-08-07T11:35:12;1.77;;;0.77;;
71148;SDS011;59072;42.144;25.200;2023-08-07T11:37:45;0.90;;;0.68;;
71148;SDS011;59072;42.144;25.200;2023-08-07T11:40:13;1.95;;;1.10;;
71148;SDS011;59072;42.144;25.200;2023-08-07T11:42:41;4.07;;;1.13;;
71148;SDS011;59072;42.144;25.200;2023-08-07T11:45:06;2.97;;;1.10;;
71148;SDS011;59072;42.144;25.200;2023-08-07T11:48:35;1.40;;;0.80;;
71148;SDS011;59072;42.144;25.200;2023-08-07T11:51:59;2.78;;;1.00;;
71148;SDS011;59072;42.144;25.200;2023-08-07T11:54:24;1.27;;;0.80;;
71148;SDS011;59072;42.144;25.200;2023-08-07T11:56:51;3.40;;;0.90;;
71148;SDS011;59072;42.144;25.200;2023-08-07T11:59:16;1.50;;;1.00;;
71148;SDS011;59072;42.144;25.200;2023-08-07T12:01:43;0.70;;;0.70;;
71148;SDS011;59072;42.144;25.200;2023-08-07T12:04:09;1.30;;;1.00;;
71148;SDS011;59072;42.144;25.200;2023-08-07T12:06:35;8.30;;;4.83;;
71148;SDS011;59072;42.144;25.200;2023-08-07T12:09:04;1.45;;;0.90;;
71148;SDS011;59072;42.144;25.200;2023-08-07T12:14:05;2.22;;;0.85;;
71148;SDS011;59072;42.144;25.200;2023-08-07T12:16:34;2.65;;;0.98;;
71148;SDS011;59072;42.144;25.200;2023-08-07T12:19:15;2.63;;;1.00;;
71148;SDS011;59072;42.144;25.200;2023-08-07T12:21:41;4.33;;;1.70;;
71148;SDS011;59072;42.144;25.200;2023-08-07T12:24:07;1.25;;;0.90;;
71148;SDS011;59072;42.144;25.200;2023-08-07T12:26:35;1.73;;;0.83;;
71148;SDS011;59072;42.144;25.200;2023-08-07T12:29:01;1.65;;;1.00;;
71148;SDS011;59072;42.144;25.200;2023-08-07T12:31:29;1.23;;;0.90;;
71148;SDS011;59072;42.144;25.200;2023-08-07T12:33:54;3.25;;;1.20;;
71148;SDS011;59072;42.144;25.200;2023-08-07T12:37:18;2.72;;;1.08;;
71148;SDS011;59072;42.144;25.200;2023-08-07T12:40:43;1.20;;;1.00;;
71148;SDS011;59072;42.144;25.200;2023-08-07T12:44:10;1.73;;;1.05;;
71148;SDS011;59072;42.144;25.200;2023-08-07T12:47:10;1.77;;;1.00;;
71148;SDS011;59072;42.144;25.200;2023-08-07T12:49:35;2.05;;;1.05;;
71148;SDS011;59072;42.144;25.200;2023-08-07T12:52:59;1.58;;;1.05;;
71148;SDS011;59072;42.144;25.200;2023-08-07T12:56:26;2.15;;;1.00;;
71148;SDS011;59072;42.144;25.200;2023-08-07T12:59:52;2.33;;;1.27;;
71148;SDS011;59072;42.144;25.200;2023-08-07T13:03:16;2.53;;;1.08;;
71148;SDS011;59072;42.144;25.200;2023-08-07T13:05:41;2.53;;;1.10;;
71148;SDS011;59072;42.144;25.200;2023-08-07T13:08:14;1.77;;;1.20;;
71148;SDS011;59072;42.144;25.200;2023-08-07T13:11:39;2.00;;;1.10;;
71148;SDS011;59072;42.144;25.200;2023-08-07T13:15:09;2.63;;;1.15;;
71148;SDS011;59072;42.144;25.200;2023-08-07T13:18:38;2.08;;;1.27;;
71148;SDS011;59072;42.144;25.200;2023-08-07T13:21:06;2.55;;;1.30;;
71148;SDS011;59072;42.144;25.200;2023-08-07T13:23:31;1.85;;;1.30;;
71148;SDS011;59072;42.144;25.200;2023-08-07T13:25:59;2.03;;;1.38;;
71148;SDS011;59072;42.144;25.200;2023-08-07T13:28:24;2.03;;;1.40;;
71148;SDS011;59072;42.144;25.200;2023-08-07T13:30:50;1.70;;;1.30;;
71148;SDS011;59072;42.144;25.200;2023-08-07T13:33:16;2.00;;;1.27;;
71148;SDS011;59072;42.144;25.200;2023-08-07T13:35:41;1.30;;;1.20;;
71148;SDS011;59072;42.144;25.200;2023-08-07T13:38:09;1.73;;;1.17;;
71148;SDS011;59072;42.144;25.200;2023-08-07T13:40:38;2.88;;;1.20;;
71148;SDS011;59072;42.144;25.200;2023-08-07T13:43:03;2.88;;;1.20;;
71148;SDS011;59072;42.144;25.200;2023-08-07T13:45:35;3.05;;;1.27;;
71148;SDS011;59072;42.144;25.200;2023-08-07T13:48:01;3.20;;;1.35;;
71148;SDS011;59072;42.144;25.200;2023-08-07T13:50:27;1.48;;;1.20;;
71148;SDS011;59072;42.144;25.200;2023-08-07T13:52:55;1.85;;;1.23;;
71148;SDS011;59072;42.144;25.200;2023-08-07T13:55:20;2.13;;;1.20;;
71148;SDS011;59072;42.144;25.200;2023-08-07T13:57:46;2.75;;;1.27;;
71148;SDS011;59072;42.144;25.200;2023-08-07T14:00:11;2.75;;;1.20;;
71148;SDS011;59072;42.144;25.200;2023-08-07T14:02:37;1.90;;;1.20;;
71148;SDS011;59072;42.144;25.200;2023-08-07T14:05:10;1.73;;;1.35;;
71148;SDS011;59072;42.144;25.200;2023-08-07T14:07:35;1.27;;;1.15;;
71148;SDS011;59072;42.144;25.200;2023-08-07T14:10:01;2.20;;;1.30;;
71148;SDS011;59072;42.144;25.200;2023-08-07T14:13:25;5.07;;;1.50;;
71148;SDS011;59072;42.144;25.200;2023-08-07T14:16:49;2.47;;;1.20;;
71148;SDS011;59072;42.144;25.200;2023-08-07T14:20:13;1.35;;;1.10;;
71148;SDS011;59072;42.144;25.200;2023-08-07T14:23:39;1.75;;;1.10;;
71148;SDS011;59072;42.144;25.200;2023-08-07T14:27:05;1.42;;;1.13;;
71148;SDS011;59072;42.144;25.200;2023-08-07T14:30:32;1.55;;;1.40;;
71148;SDS011;59072;42.144;25.200;2023-08-07T14:34:06;3.50;;;1.30;;
71148;SDS011;59072;42.144;25.200;2023-08-07T14:37:30;2.10;;;1.45;;
71148;SDS011;59072;42.144;25.200;2023-08-07T14:40:54;3.10;;;1.50;;
71148;SDS011;59072;42.144;25.200;2023-08-07T14:47:46;3.10;;;1.25;;
71148;SDS011;59072;42.144;25.200;2023-08-07T14:51:13;1.77;;;1.30;;
71148;SDS011;59072;42.144;25.200;2023-08-07T14:54:39;3.05;;;1.30;;
71148;SDS011;59072;42.144;25.200;2023-08-07T14:58:03;3.70;;;1.70;;
71148;SDS011;59072;42.144;25.200;2023-08-07T15:01:30;2.22;;;1.40;;
71148;SDS011;59072;42.144;25.200;2023-08-07T15:04:56;4.38;;;1.98;;
71148;SDS011;59072;42.144;25.200;2023-08-07T15:11:46;2.78;;;1.70;;
71148;SDS011;59072;42.144;25.200;2023-08-07T15:15:10;1.80;;;1.45;;
71148;SDS011;59072;42.144;25.200;2023-08-07T15:18:34;5.97;;;4.10;;
71148;SDS011;59072;42.144;25.200;2023-08-07T15:21:58;1.45;;;1.25;;
71148;SDS011;59072;42.144;25.200;2023-08-07T15:25:22;1.58;;;1.30;;
71148;SDS011;59072;42.144;25.200;2023-08-07T15:28:46;2.35;;;1.20;;
71148;SDS011;59072;42.144;25.200;2023-08-07T15:32:11;2.65;;;1.38;;
71148;SDS011;59072;42.144;25.200;2023-08-07T15:35:35;8.40;;;3.92;;
71148;SDS011;59072;42.144;25.200;2023-08-07T15:38:59;2.85;;;1.33;;
71148;SDS011;59072;42.144;25.200;2023-08-07T15:42:22;3.22;;;1.58;;